createdAt,value
2022-11-01T00:00:40.918Z,0.00
2022-11-01T00:01:40.918Z,0.00
2022-11-01T00:02:41.191Z,0.00
2022-11-01T00:03:40.689Z,0.00
2022-11-01T00:04:40.829Z,0.00
2022-11-01T00:05:40.676Z,0.00
2022-11-01T00:06:40.670Z,0.00
2022-11-01T00:07:40.661Z,0.00
2022-11-01T00:08:40.715Z,0.00
2022-11-01T00:09:40.618Z,0.00
2022-11-01T00:10:40.586Z,0.00
2022-11-01T00:11:40.566Z,0.00
2022-11-01T00:12:40.585Z,0.00
2022-11-01T00:13:40.573Z,0.00
2022-11-01T00:14:40.612Z,0.00
2022-11-01T00:15:40.525Z,0.00
2022-11-01T00:16:40.495Z,0.00
2022-11-01T00:17:40.493Z,0.00
2022-11-01T00:18:40.484Z,0.00
2022-11-01T00:19:40.493Z,0.00
2022-11-01T00:20:40.529Z,0.00
2022-11-01T00:21:40.442Z,0.00
2022-11-01T00:22:40.423Z,0.00
2022-11-01T00:23:40.399Z,0.00
2022-11-01T00:24:40.396Z,0.00
2022-11-01T00:25:40.402Z,0.00
2022-11-01T00:26:40.499Z,0.00
2022-11-01T00:27:40.357Z,0.00
2022-11-01T00:28:40.448Z,0.00
2022-11-01T00:29:40.331Z,0.00
2022-11-01T00:30:40.335Z,0.00
2022-11-01T00:31:40.336Z,0.00
2022-11-01T00:32:40.489Z,0.00
2022-11-01T00:33:40.271Z,0.00
2022-11-01T00:34:40.249Z,0.00
2022-11-01T00:35:40.239Z,0.00
2022-11-01T00:36:40.231Z,0.00
2022-11-01T00:37:40.482Z,0.00
2022-11-01T00:38:40.285Z,0.00
2022-11-01T00:39:40.169Z,0.00
2022-11-01T00:40:40.252Z,0.00
2022-11-01T00:41:40.159Z,0.00
2022-11-01T00:42:40.155Z,0.00
2022-11-01T00:43:40.282Z,0.00
2022-11-01T00:44:40.291Z,0.00
2022-11-01T00:45:40.166Z,0.00
2022-11-01T00:46:40.084Z,0.00
2022-11-01T00:47:40.076Z,0.00
2022-11-01T00:48:40.045Z,0.00
2022-11-01T00:49:40.090Z,0.00
2022-11-01T00:50:40.267Z,0.00
2022-11-01T00:51:40.008Z,0.00
2022-11-01T00:52:40.309Z,0.00
2022-11-01T00:53:39.999Z,0.00
2022-11-01T00:54:40.104Z,0.00
2022-11-01T00:55:40.005Z,0.00
2022-11-01T00:56:40.803Z,0.00
2022-11-01T00:57:39.964Z,0.00
2022-11-01T00:58:39.992Z,0.00
2022-11-01T00:59:41.041Z,0.00
2022-11-01T01:00:40.028Z,0.00
2022-11-01T01:01:40.081Z,0.00
2022-11-01T01:02:40.014Z,0.00
2022-11-01T01:03:39.841Z,0.00
2022-11-01T01:04:39.990Z,0.00
2022-11-01T01:05:39.810Z,0.00
2022-11-01T01:06:40.052Z,0.00
2022-11-01T01:07:40.323Z,0.00
2022-11-01T01:08:39.873Z,0.00
2022-11-01T01:09:39.764Z,0.00
2022-11-01T01:10:39.759Z,0.00
2022-11-01T01:11:39.732Z,0.00
2022-11-01T01:12:39.846Z,0.00
2022-11-01T01:13:39.725Z,0.00
2022-11-01T01:14:39.900Z,0.00
2022-11-01T01:15:39.674Z,0.00
2022-11-01T01:16:39.950Z,0.00
2022-11-01T01:17:39.671Z,0.00
2022-11-01T01:18:39.807Z,0.00
2022-11-01T01:19:39.677Z,0.00
2022-11-01T01:20:39.907Z,0.00
2022-11-01T01:21:39.588Z,0.00
2022-11-01T01:22:39.714Z,0.00
2022-11-01T01:23:39.564Z,0.00
2022-11-01T01:24:39.565Z,0.00
2022-11-01T01:25:39.577Z,0.00
2022-11-01T01:26:39.638Z,0.00
2022-11-01T01:27:39.518Z,0.00
2022-11-01T01:28:43.511Z,0.00
2022-11-01T01:29:40.486Z,0.00
2022-11-01T01:30:39.615Z,0.00
2022-11-01T01:31:39.697Z,0.00
2022-11-01T01:32:39.529Z,0.00
2022-11-01T01:33:39.438Z,0.00
2022-11-01T01:34:39.422Z,0.00
2022-11-01T01:35:39.393Z,0.00
2022-11-01T01:36:39.672Z,0.00
2022-11-01T01:37:39.415Z,0.00
2022-11-01T01:38:39.499Z,0.00
2022-11-01T01:39:39.352Z,0.00
2022-11-01T01:40:39.526Z,0.00
2022-11-01T01:41:40.142Z,0.00
2022-11-01T01:42:39.423Z,0.00
2022-11-01T01:43:39.318Z,0.00
2022-11-01T01:44:39.658Z,0.00
2022-11-01T01:45:39.263Z,0.00
2022-11-01T01:46:39.257Z,0.00
2022-11-01T01:47:39.238Z,0.00
2022-11-01T01:48:39.210Z,0.00
2022-11-01T01:49:41.731Z,0.00
2022-11-01T01:50:39.496Z,0.00
2022-11-01T01:51:39.183Z,0.00
2022-11-01T01:52:39.344Z,0.00
2022-11-01T02:01:36.321Z,0.00
2022-11-01T02:02:37.995Z,0.00
2022-11-01T02:03:36.014Z,0.00
2022-11-01T02:04:36.946Z,0.00
2022-11-01T02:05:35.999Z,0.00
2022-11-01T02:06:36.215Z,0.00
2022-11-01T02:07:36.079Z,0.00
2022-11-01T02:14:30.089Z,0.00
2022-11-01T02:15:29.873Z,0.00
2022-11-01T02:16:29.883Z,0.00
2022-11-01T02:17:29.846Z,0.00
2022-11-01T02:18:29.838Z,0.00
2022-11-01T02:19:29.823Z,0.00
2022-11-01T02:20:29.932Z,0.00
2022-11-01T02:21:29.800Z,0.00
2022-11-01T02:22:29.774Z,0.00
2022-11-01T02:23:29.762Z,0.00
2022-11-01T02:24:29.778Z,0.00
2022-11-01T02:25:29.738Z,0.00
2022-11-01T02:26:30.055Z,0.00
2022-11-01T02:27:29.702Z,0.00
2022-11-01T02:28:29.707Z,0.00
2022-11-01T02:29:29.675Z,0.00
2022-11-01T02:30:29.665Z,0.00
2022-11-01T02:31:29.670Z,0.00
2022-11-01T02:32:29.818Z,0.00
2022-11-01T02:33:29.622Z,0.00
2022-11-01T02:34:29.612Z,0.00
2022-11-01T02:35:29.595Z,0.00
2022-11-01T02:36:29.595Z,0.00
2022-11-01T02:37:29.568Z,0.00
2022-11-01T02:38:29.657Z,0.00
2022-11-01T02:39:29.536Z,0.00
2022-11-01T02:40:29.528Z,0.00
2022-11-01T02:41:29.525Z,0.00
2022-11-01T02:42:29.505Z,0.00
2022-11-01T02:43:29.488Z,0.00
2022-11-01T02:44:29.783Z,0.00
2022-11-01T02:45:29.449Z,0.00
2022-11-01T02:46:29.459Z,0.00
2022-11-01T02:47:29.416Z,0.00
2022-11-01T02:48:29.411Z,0.00
2022-11-01T02:49:29.403Z,0.00
2022-11-01T02:50:29.614Z,0.00
2022-11-01T02:51:29.375Z,0.00
2022-11-01T02:52:29.357Z,0.00
2022-11-01T02:53:29.348Z,0.00
2022-11-01T02:54:29.333Z,0.00
2022-11-01T02:55:29.352Z,0.00
2022-11-01T02:56:29.525Z,0.00
2022-11-01T02:57:29.282Z,0.00
2022-11-01T02:58:29.288Z,0.00
2022-11-01T02:59:29.277Z,0.00
2022-11-01T03:00:29.251Z,0.00
2022-11-01T03:01:29.324Z,0.00
2022-11-01T03:02:29.334Z,0.00
2022-11-01T03:03:29.221Z,0.00
2022-11-01T03:04:29.204Z,0.00
2022-11-01T03:05:29.170Z,0.00
2022-11-01T03:06:29.159Z,0.00
2022-11-01T03:07:29.161Z,0.00
2022-11-01T03:08:29.325Z,0.00
2022-11-01T03:09:29.132Z,0.00
2022-11-01T03:10:29.128Z,0.00
2022-11-01T03:11:29.089Z,0.00
2022-11-01T03:13:29.096Z,0.00
2022-11-01T03:14:29.306Z,0.00
2022-11-01T03:15:29.038Z,0.00
2022-11-01T03:16:29.048Z,0.00
2022-11-01T03:17:29.005Z,0.00
2022-11-01T03:18:29.006Z,0.00
2022-11-01T03:19:28.984Z,0.00
2022-11-01T03:20:29.151Z,0.00
2022-11-01T03:21:28.961Z,0.00
2022-11-01T03:22:28.943Z,0.00
2022-11-01T03:23:28.927Z,0.00
2022-11-01T03:24:28.918Z,0.00
2022-11-01T03:25:28.899Z,0.00
2022-11-01T03:26:29.056Z,0.00
2022-11-01T03:27:28.882Z,0.00
2022-11-01T03:28:28.859Z,0.00
2022-11-01T03:29:28.836Z,0.00
2022-11-01T03:30:28.823Z,0.00
2022-11-01T03:31:28.818Z,0.00
2022-11-01T03:32:28.914Z,0.00
2022-11-01T03:33:28.796Z,0.00
2022-11-01T03:34:28.769Z,0.00
2022-11-01T03:35:28.766Z,0.00
2022-11-01T03:36:28.749Z,0.00
2022-11-01T03:37:28.731Z,0.00
2022-11-01T03:38:28.860Z,0.00
2022-11-01T03:39:28.700Z,0.00
2022-11-01T03:40:28.698Z,0.00
2022-11-01T03:41:28.670Z,0.00
2022-11-01T03:42:28.657Z,0.00
2022-11-01T03:43:28.655Z,0.00
2022-11-01T03:44:28.822Z,0.00
2022-11-01T03:45:28.621Z,0.00
2022-11-01T03:46:28.597Z,0.00
2022-11-01T03:47:28.599Z,0.00
2022-11-01T03:48:28.590Z,0.00
2022-11-01T03:49:28.566Z,0.00
2022-11-01T03:50:28.716Z,0.00
2022-11-01T03:51:28.555Z,0.00
2022-11-01T03:52:28.525Z,0.00
2022-11-01T03:53:28.508Z,0.00
2022-11-01T03:54:28.492Z,0.00
2022-11-01T03:55:28.487Z,0.00
2022-11-01T03:56:28.698Z,0.00
2022-11-01T03:57:28.452Z,0.00
2022-11-01T03:58:28.433Z,0.00
2022-11-01T03:59:28.430Z,0.00
2022-11-01T04:00:28.420Z,0.00
2022-11-01T04:01:28.455Z,0.00
2022-11-01T04:02:28.532Z,0.00
2022-11-01T04:03:28.370Z,0.00
2022-11-01T04:04:28.347Z,0.00
2022-11-01T04:05:28.338Z,0.00
2022-11-01T04:06:28.328Z,0.00
2022-11-01T04:07:28.332Z,0.00
2022-11-01T04:08:28.522Z,0.00
2022-11-01T04:09:28.280Z,0.00
2022-11-01T04:10:28.280Z,0.00
2022-11-01T04:11:28.255Z,0.00
2022-11-01T04:12:28.247Z,0.00
2022-11-01T04:13:28.220Z,0.00
2022-11-01T04:14:28.466Z,0.00
2022-11-01T04:15:28.197Z,0.00
2022-11-01T04:16:28.179Z,0.00
2022-11-01T04:17:28.187Z,0.00
2022-11-01T04:18:28.181Z,0.00
2022-11-01T04:19:28.145Z,0.00
2022-11-01T04:20:28.387Z,0.00
2022-11-01T04:21:28.125Z,0.00
2022-11-01T04:22:28.106Z,0.00
2022-11-01T04:23:28.098Z,0.00
2022-11-01T04:24:28.067Z,0.00
2022-11-01T04:25:28.056Z,0.00
2022-11-01T04:26:28.247Z,0.00
2022-11-01T04:27:28.050Z,0.00
2022-11-01T04:28:28.034Z,0.00
2022-11-01T04:29:28.016Z,0.00
2022-11-01T04:30:28.025Z,0.00
2022-11-01T04:31:28.117Z,0.00
2022-11-01T04:32:28.016Z,0.00
2022-11-01T04:33:28.048Z,0.00
2022-11-01T04:34:27.930Z,0.00
2022-11-01T04:35:27.914Z,0.00
2022-11-01T04:36:27.923Z,0.00
2022-11-01T04:37:28.093Z,0.00
2022-11-01T04:38:27.919Z,0.00
2022-11-01T04:39:27.868Z,0.00
2022-11-01T04:40:27.843Z,0.00
2022-11-01T04:41:27.844Z,0.00
2022-11-01T04:42:27.819Z,0.00
2022-11-01T04:43:28.585Z,0.00
2022-11-01T04:44:27.817Z,0.00
2022-11-01T04:45:27.781Z,0.00
2022-11-01T04:46:27.789Z,0.00
2022-11-01T04:47:27.750Z,0.00
2022-11-01T04:48:27.740Z,0.00
2022-11-01T04:49:27.818Z,0.00
2022-11-01T04:50:27.741Z,0.00
2022-11-01T04:51:27.797Z,0.00
2022-11-01T04:52:27.695Z,0.00
2022-11-01T04:53:28.485Z,0.00
2022-11-01T04:54:27.650Z,0.00
2022-11-01T04:55:27.785Z,0.00
2022-11-01T04:56:27.651Z,0.00
2022-11-01T04:57:27.606Z,0.00
2022-11-01T04:58:27.623Z,0.00
2022-11-01T04:59:27.585Z,0.00
2022-11-01T05:00:27.583Z,0.00
2022-11-01T05:01:27.804Z,0.00
2022-11-01T05:02:27.584Z,0.00
2022-11-01T05:03:27.625Z,0.00
2022-11-01T05:04:27.527Z,0.00
2022-11-01T05:05:27.495Z,0.00
2022-11-01T05:06:27.485Z,0.00
2022-11-01T05:07:27.581Z,0.00
2022-11-01T05:08:29.248Z,0.00
2022-11-01T05:09:27.451Z,0.00
2022-11-01T05:10:27.436Z,0.00
2022-11-01T05:11:27.427Z,0.00
2022-11-01T05:12:27.409Z,0.00
2022-11-01T05:13:27.730Z,0.00
2022-11-01T05:14:27.387Z,0.00
2022-11-01T05:15:27.466Z,0.00
2022-11-01T05:16:27.355Z,0.00
2022-11-01T05:17:27.342Z,0.00
2022-11-01T05:18:27.351Z,0.00
2022-11-01T05:19:27.504Z,0.00
2022-11-01T05:20:27.326Z,0.00
2022-11-01T05:21:27.281Z,0.00
2022-11-01T05:22:27.267Z,0.00
2022-11-01T05:23:27.417Z,0.00
2022-11-01T05:24:27.234Z,0.00
2022-11-01T05:25:27.436Z,0.00
2022-11-01T05:26:27.269Z,0.00
2022-11-01T05:27:27.314Z,0.00
2022-11-01T05:28:27.243Z,0.00
2022-11-01T05:29:32.995Z,0.00
2022-11-01T05:30:28.163Z,0.00
2022-11-01T05:31:27.223Z,0.00
2022-11-01T05:32:27.170Z,0.00
2022-11-01T05:33:27.111Z,0.00
2022-11-01T05:34:27.089Z,0.00
2022-11-01T05:35:27.130Z,0.00
2022-11-01T05:36:27.060Z,0.00
2022-11-01T05:37:28.603Z,0.00
2022-11-01T05:38:27.081Z,0.00
2022-11-01T05:39:27.027Z,0.00
2022-11-01T05:40:27.008Z,0.00
2022-11-01T05:41:26.997Z,0.00
2022-11-01T05:42:26.997Z,0.00
2022-11-01T05:43:27.116Z,0.00
2022-11-01T05:44:26.984Z,0.00
2022-11-01T05:45:26.956Z,0.00
2022-11-01T05:46:26.961Z,0.00
2022-11-01T05:47:26.912Z,0.00
2022-11-01T05:48:26.901Z,0.00
2022-11-01T05:49:27.038Z,0.00
2022-11-01T05:50:26.898Z,0.00
2022-11-01T05:51:26.862Z,0.00
2022-11-01T05:52:26.928Z,0.00
2022-11-01T05:53:26.837Z,0.00
2022-11-01T05:54:26.803Z,0.00
2022-11-01T05:55:27.035Z,0.00
2022-11-01T05:56:26.827Z,0.00
2022-11-01T05:57:30.914Z,0.00
2022-11-01T05:58:30.546Z,0.00
2022-11-01T05:59:26.739Z,0.00
2022-11-01T06:00:26.746Z,0.00
2022-11-01T06:01:26.911Z,0.00
2022-11-01T06:02:26.790Z,0.00
2022-11-01T06:03:26.711Z,0.00
2022-11-01T06:04:26.675Z,0.00
2022-11-01T06:05:26.709Z,0.00
2022-11-01T06:06:26.643Z,0.00
2022-11-01T06:07:26.746Z,0.00
2022-11-01T06:08:26.663Z,0.00
2022-11-01T06:09:26.645Z,0.00
2022-11-01T06:10:26.618Z,0.00
2022-11-01T06:11:26.579Z,0.00
2022-11-01T06:12:26.559Z,0.00
2022-11-01T06:13:27.169Z,0.00
2022-11-01T06:14:26.611Z,0.00
2022-11-01T06:15:26.542Z,0.00
2022-11-01T06:16:26.506Z,0.00
2022-11-01T06:17:26.503Z,0.00
2022-11-01T06:18:26.483Z,0.00
2022-11-01T06:19:26.671Z,0.00
2022-11-01T06:20:26.473Z,0.00
2022-11-01T06:21:30.045Z,0.00
2022-11-01T06:22:26.413Z,0.00
2022-11-01T06:23:26.407Z,0.00
2022-11-01T06:24:26.395Z,0.00
2022-11-01T06:25:26.484Z,0.00
2022-11-01T06:26:26.391Z,0.00
2022-11-01T06:27:26.349Z,0.00
2022-11-01T06:28:26.342Z,0.00
2022-11-01T06:29:26.331Z,0.00
2022-11-01T06:30:26.333Z,0.00
2022-11-01T06:31:26.402Z,0.00
2022-11-01T06:32:26.454Z,0.00
2022-11-01T06:33:26.283Z,0.00
2022-11-01T06:34:26.271Z,0.00
2022-11-01T06:35:26.253Z,0.00
2022-11-01T06:36:26.229Z,0.00
2022-11-01T06:37:26.216Z,0.00
2022-11-01T06:38:26.257Z,0.00
2022-11-01T06:39:26.189Z,0.00
2022-11-01T06:40:26.171Z,0.00
2022-11-01T06:41:26.157Z,0.00
2022-11-01T06:42:26.144Z,0.00
2022-11-01T06:43:26.420Z,0.00
2022-11-01T06:44:26.153Z,0.00
2022-11-01T06:45:26.110Z,0.00
2022-11-01T06:46:26.080Z,0.00
2022-11-01T06:47:26.121Z,0.00
2022-11-01T06:48:26.057Z,0.00
2022-11-01T06:49:26.161Z,0.00
2022-11-01T06:50:26.071Z,0.00
2022-11-01T06:51:26.011Z,0.00
2022-11-01T06:52:25.996Z,0.00
2022-11-01T06:53:25.988Z,0.00
2022-11-01T06:54:25.975Z,0.00
2022-11-01T06:55:26.142Z,0.00
2022-11-01T06:56:25.974Z,0.00
2022-11-01T06:57:25.944Z,0.00
2022-11-01T06:58:25.918Z,0.00
2022-11-01T06:59:25.908Z,0.00
2022-11-01T07:00:25.894Z,0.00
2022-11-01T07:01:26.074Z,0.00
2022-11-01T07:02:29.727Z,0.00
2022-11-01T07:03:25.840Z,0.00
2022-11-01T07:04:25.833Z,0.00
2022-11-01T07:05:25.816Z,0.00
2022-11-01T07:06:25.800Z,0.00
2022-11-01T07:07:25.795Z,0.00
2022-11-01T07:08:25.806Z,0.00
2022-11-01T07:09:25.776Z,0.00
2022-11-01T07:10:25.767Z,0.00
2022-11-01T07:11:31.004Z,0.00
2022-11-01T07:12:26.718Z,0.00
2022-11-01T07:13:25.731Z,0.00
2022-11-01T07:14:25.742Z,0.00
2022-11-01T07:15:25.687Z,0.00
2022-11-01T07:16:25.666Z,0.00
2022-11-01T07:17:25.656Z,0.00
2022-11-01T07:18:25.632Z,0.00
2022-11-01T07:19:25.647Z,0.00
2022-11-01T07:20:25.649Z,0.00
2022-11-01T07:21:25.636Z,0.00
2022-11-01T07:22:25.606Z,0.00
2022-11-01T07:23:25.599Z,0.00
2022-11-01T07:24:25.575Z,0.00
2022-11-01T07:25:25.574Z,0.00
2022-11-01T07:26:25.590Z,0.00
2022-11-01T07:27:25.539Z,0.00
2022-11-01T07:28:25.498Z,0.00
2022-11-01T07:29:25.522Z,0.00
2022-11-01T07:30:25.500Z,0.00
2022-11-01T07:31:25.469Z,0.00
2022-11-01T07:32:25.497Z,0.00
2022-11-01T07:33:25.476Z,0.00
2022-11-01T07:34:25.411Z,0.00
2022-11-01T07:35:25.464Z,0.00
2022-11-01T07:36:25.384Z,0.00
2022-11-01T07:37:25.375Z,0.00
2022-11-01T07:38:25.535Z,0.00
2022-11-01T07:39:25.407Z,0.00
2022-11-01T07:40:25.329Z,0.00
2022-11-01T07:41:25.320Z,0.00
2022-11-01T07:42:25.295Z,0.00
2022-11-01T07:43:25.290Z,0.00
2022-11-01T07:44:25.319Z,0.00
2022-11-01T07:45:25.259Z,0.00
2022-11-01T07:46:25.265Z,0.00
2022-11-01T07:47:25.228Z,0.00
2022-11-01T07:48:25.247Z,0.00
2022-11-01T07:49:25.227Z,0.00
2022-11-01T07:50:25.216Z,0.00
2022-11-01T07:51:25.175Z,0.00
2022-11-01T07:52:25.160Z,0.00
2022-11-01T07:53:25.160Z,0.00
2022-11-01T07:54:25.149Z,0.00
2022-11-01T07:55:25.123Z,0.00
2022-11-01T07:56:25.148Z,0.00
2022-11-01T07:57:25.090Z,0.00
2022-11-01T07:58:25.094Z,0.00
2022-11-01T07:59:25.086Z,0.00
2022-11-01T08:00:25.155Z,0.00
2022-11-01T08:01:25.131Z,0.00
2022-11-01T08:02:25.312Z,0.00
2022-11-01T08:03:25.028Z,0.00
2022-11-01T08:04:24.999Z,0.00
2022-11-01T08:05:24.976Z,0.00
2022-11-01T08:06:24.980Z,0.00
2022-11-01T08:07:24.977Z,0.00
2022-11-01T08:08:24.968Z,0.00
2022-11-01T08:09:25.643Z,0.00
2022-11-01T08:10:25.007Z,0.00
2022-11-01T08:11:24.899Z,0.00
2022-11-01T08:12:24.890Z,0.00
2022-11-01T08:13:24.902Z,0.00
2022-11-01T08:14:24.903Z,0.00
2022-11-01T08:15:24.844Z,0.00
2022-11-01T08:16:24.863Z,0.00
2022-11-01T08:17:24.811Z,0.00
2022-11-01T08:18:24.802Z,0.00
2022-11-01T08:19:24.789Z,0.00
2022-11-01T08:20:24.947Z,0.00
2022-11-01T08:21:24.753Z,0.00
2022-11-01T08:22:24.743Z,0.00
2022-11-01T08:23:24.734Z,0.00
2022-11-01T08:24:24.725Z,0.00
2022-11-01T08:25:24.699Z,0.00
2022-11-01T08:26:24.717Z,0.00
2022-11-01T08:27:24.690Z,0.00
2022-11-01T08:28:24.663Z,0.00
2022-11-01T08:29:24.675Z,0.00
2022-11-01T08:30:24.665Z,0.00
2022-11-01T08:31:24.637Z,0.00
2022-11-01T08:32:24.640Z,0.00
2022-11-01T08:33:24.606Z,0.00
2022-11-01T08:34:24.586Z,0.00
2022-11-01T08:35:24.567Z,0.00
2022-11-01T08:36:24.550Z,0.00
2022-11-01T08:37:24.551Z,0.00
2022-11-01T08:38:24.559Z,0.00
2022-11-01T08:39:24.511Z,0.00
2022-11-01T08:40:24.558Z,0.00
2022-11-01T08:41:24.502Z,0.00
2022-11-01T08:42:24.485Z,0.00
2022-11-01T08:43:24.444Z,0.00
2022-11-01T08:44:24.623Z,0.00
2022-11-01T08:45:24.424Z,0.00
2022-11-01T08:46:24.430Z,0.00
2022-11-01T08:47:24.414Z,0.00
2022-11-01T08:48:24.412Z,0.00
2022-11-01T08:49:24.367Z,0.00
2022-11-01T08:50:24.442Z,0.00
2022-11-01T08:51:24.334Z,0.00
2022-11-01T08:52:24.328Z,0.00
2022-11-01T08:53:24.314Z,0.00
2022-11-01T08:54:24.309Z,0.00
2022-11-01T08:55:24.315Z,0.00
2022-11-01T08:56:24.308Z,0.00
2022-11-01T08:57:24.272Z,0.00
2022-11-01T08:58:24.239Z,0.00
2022-11-01T08:59:24.399Z,0.00
2022-11-01T09:00:24.336Z,0.00
2022-11-01T09:01:24.325Z,0.00
2022-11-01T09:02:24.390Z,0.00
2022-11-01T09:03:24.379Z,0.00
2022-11-01T09:04:25.056Z,0.00
2022-11-01T09:05:24.182Z,0.00
2022-11-01T09:06:24.128Z,0.00
2022-11-01T09:07:24.117Z,0.00
2022-11-01T09:08:24.138Z,0.00
2022-11-01T09:09:24.092Z,0.00
2022-11-01T09:10:24.075Z,0.00
2022-11-01T09:11:24.066Z,0.00
2022-11-01T09:12:24.907Z,0.00
2022-11-01T09:13:24.022Z,0.00
2022-11-01T09:14:24.080Z,0.00
2022-11-01T09:15:23.996Z,0.00
2022-11-01T09:16:24.024Z,0.00
2022-11-01T09:17:23.976Z,0.00
2022-11-01T09:18:23.977Z,0.00
2022-11-01T09:19:23.944Z,0.00
2022-11-01T09:20:23.976Z,0.00
2022-11-01T09:21:26.654Z,0.00
2022-11-01T09:22:24.910Z,0.00
2022-11-01T09:23:23.886Z,0.00
2022-11-01T09:24:23.983Z,0.00
2022-11-01T09:25:23.865Z,0.00
2022-11-01T09:26:23.891Z,0.00
2022-11-01T09:27:23.829Z,0.00
2022-11-01T09:28:23.847Z,0.00
2022-11-01T09:29:23.856Z,0.00
2022-11-01T09:30:23.828Z,0.00
2022-11-01T09:31:23.779Z,0.00
2022-11-01T09:32:23.806Z,0.00
2022-11-01T09:33:23.787Z,0.00
2022-11-01T09:34:23.929Z,0.00
2022-11-01T09:35:23.755Z,0.00
2022-11-01T09:36:23.709Z,0.00
2022-11-01T09:37:23.688Z,0.00
2022-11-01T09:38:23.770Z,0.00
2022-11-01T09:39:23.717Z,0.00
2022-11-01T09:40:23.656Z,0.00
2022-11-01T09:41:23.689Z,0.00
2022-11-01T09:42:23.704Z,0.00
2022-11-01T09:43:23.868Z,0.00
2022-11-01T09:44:23.809Z,0.00
2022-11-01T09:45:23.646Z,0.00
2022-11-01T09:46:23.649Z,0.00
2022-11-01T09:47:31.582Z,0.00
2022-11-01T09:48:23.585Z,0.00
2022-11-01T09:49:24.321Z,0.00
2022-11-01T09:50:23.717Z,5.62
2022-11-01T09:51:23.506Z,5.62
2022-11-01T09:52:23.488Z,5.62
2022-11-01T09:53:23.472Z,5.62
2022-11-01T09:54:24.939Z,5.62
2022-11-01T09:55:23.453Z,5.62
2022-11-01T09:56:23.471Z,5.62
2022-11-01T09:57:23.437Z,5.62
2022-11-01T09:58:23.439Z,5.62
2022-11-01T09:59:23.862Z,5.62
2022-11-01T10:00:23.376Z,5.62
2022-11-01T10:01:23.469Z,5.62
2022-11-01T10:02:23.423Z,5.62
2022-11-01T10:03:23.333Z,5.62
2022-11-01T10:04:23.490Z,5.62
2022-11-01T10:05:23.295Z,5.62
2022-11-01T10:06:23.309Z,5.62
2022-11-01T10:07:23.274Z,0.00
2022-11-01T10:08:23.327Z,0.00
2022-11-01T10:09:23.356Z,0.00
2022-11-01T10:10:23.257Z,0.00
2022-11-01T10:11:23.249Z,0.00
2022-11-01T10:12:23.262Z,0.00
2022-11-01T10:13:23.223Z,0.00
2022-11-01T10:14:23.260Z,0.00
2022-11-01T10:15:23.916Z,0.00
2022-11-01T10:16:23.187Z,0.00
2022-11-01T10:17:23.292Z,0.00
2022-11-01T10:18:23.564Z,0.00
2022-11-01T10:19:23.121Z,0.00
2022-11-01T10:20:23.194Z,0.00
2022-11-01T10:21:25.826Z,0.00
2022-11-01T10:22:24.069Z,0.00
2022-11-01T10:23:23.259Z,0.00
2022-11-01T10:24:23.077Z,0.00
2022-11-01T10:25:23.026Z,0.00
2022-11-01T10:26:23.085Z,0.00
2022-11-01T10:27:23.004Z,0.00
2022-11-01T10:28:24.511Z,0.00
2022-11-01T10:29:22.983Z,0.00
2022-11-01T10:30:23.076Z,0.00
2022-11-01T10:31:22.997Z,0.00
2022-11-01T10:32:22.971Z,0.00
2022-11-01T10:33:22.924Z,0.00
2022-11-01T10:34:22.919Z,0.00
2022-11-01T10:35:23.094Z,0.00
2022-11-01T10:36:22.966Z,0.00
2022-11-01T10:37:22.876Z,0.00
2022-11-01T10:38:25.076Z,0.00
2022-11-01T10:39:53.288Z,5.62
2022-11-01T10:40:23.819Z,0.00
2022-11-01T10:41:22.794Z,0.00
2022-11-01T10:42:22.798Z,0.00
2022-11-01T10:43:22.811Z,0.00
2022-11-01T10:44:22.811Z,0.00
2022-11-01T10:45:22.751Z,0.00
2022-11-01T10:46:22.758Z,0.00
2022-11-01T10:47:22.755Z,0.00
2022-11-01T10:48:22.710Z,0.00
2022-11-01T10:49:24.507Z,0.00
2022-11-01T10:50:22.741Z,0.00
2022-11-01T10:51:27.564Z,0.00
2022-11-01T10:52:23.738Z,0.00
2022-11-01T10:53:22.644Z,0.00
2022-11-01T10:54:22.623Z,0.00
2022-11-01T10:55:22.731Z,5.62
2022-11-01T10:56:24.101Z,5.62
2022-11-01T10:57:22.601Z,5.62
2022-11-01T10:58:22.580Z,5.62
2022-11-01T10:59:22.592Z,5.62
2022-11-01T11:00:22.557Z,5.62
2022-11-01T11:01:22.807Z,0.00
2022-11-01T11:02:22.797Z,0.00
2022-11-01T11:03:22.506Z,0.00
2022-11-01T11:04:22.496Z,0.00
2022-11-01T11:05:23.403Z,0.00
2022-11-01T11:06:22.460Z,0.00
2022-11-01T11:07:24.170Z,0.00
2022-11-01T11:08:22.646Z,0.00
2022-11-01T11:09:22.428Z,0.00
2022-11-01T11:10:24.077Z,0.00
2022-11-01T11:11:23.234Z,0.00
2022-11-01T11:12:23.059Z,0.00
2022-11-01T11:13:22.373Z,0.00
2022-11-01T11:14:22.400Z,0.00
2022-11-01T11:15:22.334Z,0.00
2022-11-01T11:16:22.328Z,0.00
2022-11-01T11:17:22.298Z,0.00
2022-11-01T11:18:22.388Z,0.00
2022-11-01T11:19:22.291Z,0.00
2022-11-01T11:20:22.382Z,0.00
2022-11-01T11:21:30.276Z,0.00
2022-11-01T11:22:22.356Z,0.00
2022-11-01T11:23:22.473Z,0.00
2022-11-01T11:24:22.311Z,0.00
2022-11-01T11:25:22.214Z,0.00
2022-11-01T11:26:22.282Z,0.00
2022-11-01T11:27:22.171Z,0.00
2022-11-01T11:28:22.207Z,0.00
2022-11-01T11:29:22.180Z,0.00
2022-11-01T11:30:22.112Z,0.00
2022-11-01T11:31:22.167Z,0.00
2022-11-01T11:32:22.144Z,0.00
2022-11-01T11:33:22.088Z,0.00
2022-11-01T11:34:22.093Z,0.00
2022-11-01T11:35:22.088Z,0.00
2022-11-01T11:36:22.045Z,0.00
2022-11-01T11:37:22.030Z,0.00
2022-11-01T11:38:22.059Z,0.00
2022-11-01T11:39:21.998Z,0.00
2022-11-01T11:40:22.064Z,0.00
2022-11-01T11:41:21.976Z,0.00
2022-11-01T11:42:21.967Z,0.00
2022-11-01T11:43:21.946Z,0.00
2022-11-01T11:44:21.956Z,0.00
2022-11-01T11:45:21.920Z,0.00
2022-11-01T11:46:21.921Z,0.00
2022-11-01T11:47:21.880Z,0.00
2022-11-01T11:48:21.870Z,0.00
2022-11-01T11:49:21.859Z,0.00
2022-11-01T11:50:21.959Z,0.00
2022-11-01T11:51:21.851Z,0.00
2022-11-01T11:52:24.380Z,0.00
2022-11-01T11:53:22.812Z,0.00
2022-11-01T11:54:21.840Z,0.00
2022-11-01T11:55:21.784Z,0.00
2022-11-01T11:56:21.807Z,0.00
2022-11-01T11:57:21.750Z,0.00
2022-11-01T11:58:21.760Z,0.00
2022-11-01T11:59:21.729Z,0.00
2022-11-01T12:00:21.728Z,0.00
2022-11-01T12:01:21.757Z,0.00
2022-11-01T12:02:21.896Z,0.00
2022-11-01T12:03:21.701Z,0.00
2022-11-01T12:04:21.665Z,0.00
2022-11-01T12:05:21.681Z,0.00
2022-11-01T12:06:21.616Z,0.00
2022-11-01T12:07:21.618Z,0.00
2022-11-01T12:08:21.627Z,0.00
2022-11-01T12:09:22.963Z,0.00
2022-11-01T12:10:21.624Z,0.00
2022-11-01T12:11:21.553Z,0.00
2022-11-01T12:12:21.537Z,0.00
2022-11-01T12:13:21.520Z,0.00
2022-11-01T12:14:21.544Z,0.00
2022-11-01T12:15:21.510Z,0.00
2022-11-01T12:16:21.577Z,0.00
2022-11-01T12:17:21.467Z,0.00
2022-11-01T12:18:21.493Z,0.00
2022-11-01T12:19:21.594Z,0.00
2022-11-01T12:20:21.506Z,0.00
2022-11-01T12:21:21.443Z,0.00
2022-11-01T12:22:21.394Z,0.00
2022-11-01T12:23:21.517Z,0.00
2022-11-01T12:24:21.415Z,0.00
2022-11-01T12:25:21.367Z,0.00
2022-11-01T12:26:21.379Z,0.00
2022-11-01T12:27:21.339Z,0.00
2022-11-01T12:28:21.333Z,5.62
2022-11-01T12:29:21.307Z,5.62
2022-11-01T12:30:21.335Z,5.62
2022-11-01T12:31:21.315Z,5.62
2022-11-01T12:32:21.305Z,5.62
2022-11-01T12:33:21.250Z,5.62
2022-11-01T12:34:21.232Z,5.62
2022-11-01T12:35:21.250Z,5.62
2022-11-01T12:36:21.213Z,5.62
2022-11-01T12:37:21.206Z,5.62
2022-11-01T12:38:21.225Z,11.25
2022-11-01T12:39:21.182Z,11.25
2022-11-01T12:40:21.164Z,11.25
2022-11-01T12:41:21.140Z,16.88
2022-11-01T12:42:21.151Z,39.38
2022-11-01T12:43:21.103Z,22.50
2022-11-01T12:44:21.146Z,22.50
2022-11-01T12:45:21.784Z,33.75
2022-11-01T12:46:21.069Z,39.38
2022-11-01T12:47:21.044Z,33.75
2022-11-01T12:48:21.035Z,33.75
2022-11-01T12:49:21.029Z,39.38
2022-11-01T12:50:21.085Z,33.75
2022-11-01T12:51:21.007Z,39.38
2022-11-01T12:52:20.987Z,33.75
2022-11-01T12:53:20.980Z,28.12
2022-11-01T12:54:20.945Z,33.75
2022-11-01T12:55:21.184Z,39.38
2022-11-01T12:56:20.965Z,39.38
2022-11-01T12:57:20.917Z,39.38
2022-11-01T12:58:20.903Z,39.38
2022-11-01T12:59:20.936Z,39.38
2022-11-01T13:00:20.905Z,39.38
2022-11-01T13:01:20.900Z,33.75
2022-11-01T13:02:20.949Z,39.38
2022-11-01T13:03:20.839Z,28.12
2022-11-01T13:04:20.809Z,28.12
2022-11-01T13:05:20.806Z,33.75
2022-11-01T13:06:20.830Z,33.75
2022-11-01T13:07:20.806Z,33.75
2022-11-01T13:08:20.998Z,11.25
2022-11-01T13:09:20.762Z,5.62
2022-11-01T13:10:20.732Z,5.62
2022-11-01T13:11:20.755Z,16.88
2022-11-01T13:12:20.749Z,11.25
2022-11-01T13:13:20.695Z,5.62
2022-11-01T13:14:20.725Z,5.62
2022-11-01T13:15:22.907Z,5.62
2022-11-01T13:16:21.647Z,5.62
2022-11-01T13:17:20.634Z,5.62
2022-11-01T13:18:20.636Z,5.62
2022-11-01T13:19:20.664Z,5.62
2022-11-01T13:20:20.803Z,11.25
2022-11-01T13:21:20.771Z,5.62
2022-11-01T13:22:20.816Z,11.25
2022-11-01T13:23:20.727Z,16.88
2022-11-01T13:24:20.668Z,5.62
2022-11-01T13:25:20.549Z,5.62
2022-11-01T13:26:20.592Z,5.62
2022-11-01T13:27:20.559Z,5.62
2022-11-01T13:28:20.619Z,11.25
2022-11-01T13:29:20.497Z,5.62
2022-11-01T13:30:20.563Z,5.62
2022-11-01T13:31:20.483Z,11.25
2022-11-01T13:32:20.481Z,28.12